sensor_id;sensor_type;location;lat;lon;timestamp;P1;durP1;ratioP1;P2;durP2;ratioP2
43883;SDS011;29544;52.018;5.810;2023-03-03T00:00:24;4.63;;;2.90;;
43883;SDS011;29544;52.018;5.810;2023-03-03T00:02:50;3.30;;;2.53;;
43883;SDS011;29544;52.018;5.810;2023-03-03T00:05:15;4.43;;;3.07;;
43883;SDS011;29544;52.018;5.810;2023-03-03T00:10:09;3.42;;;2.28;;
43883;SDS011;29544;52.018;5.810;2023-03-03T00:12:35;3.72;;;2.17;;
43883;SDS011;29544;52.018;5.810;2023-03-03T00:15:12;5.07;;;3.00;;
43883;SDS011;29544;52.018;5.810;2023-03-03T00:17:39;3.67;;;2.72;;
43883;SDS011;29544;52.018;5.810;2023-03-03T00:22:51;4.00;;;2.70;;
43883;SDS011;29544;52.018;5.810;2023-03-03T00:25:25;4.43;;;2.70;;
43883;SDS011;29544;52.018;5.810;2023-03-03T00:27:52;5.20;;;3.42;;
43883;SDS011;29544;52.018;5.810;2023-03-03T00:30:27;4.68;;;2.88;;
43883;SDS011;29544;52.018;5.810;2023-03-03T00:32:53;3.75;;;2.58;;
43883;SDS011;29544;52.018;5.810;2023-03-03T00:35:29;4.72;;;2.97;;
43883;SDS011;29544;52.018;5.810;2023-03-03T00:38:01;5.03;;;3.40;;
43883;SDS011;29544;52.018;5.810;2023-03-03T00:40:39;4.70;;;2.97;;
43883;SDS011;29544;52.018;5.810;2023-03-03T00:43:21;6.05;;;3.47;;
43883;SDS011;29544;52.018;5.810;2023-03-03T00:45:49;5.93;;;3.03;;
43883;SDS011;29544;52.018;5.810;2023-03-03T00:48:24;4.43;;;2.90;;
43883;SDS011;29544;52.018;5.810;2023-03-03T00:50:55;4.10;;;2.95;;
43883;SDS011;29544;52.018;5.810;2023-03-03T00:53:28;4.63;;;2.90;;
43883;SDS011;29544;52.018;5.810;2023-03-03T00:55:55;5.97;;;3.40;;
43883;SDS011;29544;52.018;5.810;2023-03-03T00:58:21;7.38;;;3.83;;
43883;SDS011;29544;52.018;5.810;2023-03-03T01:03:15;6.15;;;3.10;;
43883;SDS011;29544;52.018;5.810;2023-03-03T01:05:43;5.65;;;3.35;;
43883;SDS011;29544;52.018;5.810;2023-03-03T01:08:09;4.93;;;3.05;;
43883;SDS011;29544;52.018;5.810;2023-03-03T01:10:36;4.53;;;3.10;;
43883;SDS011;29544;52.018;5.810;2023-03-03T01:13:05;4.47;;;3.00;;
43883;SDS011;29544;52.018;5.810;2023-03-03T01:15:31;4.93;;;3.33;;
43883;SDS011;29544;52.018;5.810;2023-03-03T01:17:57;4.37;;;3.40;;
43883;SDS011;29544;52.018;5.810;2023-03-03T01:20:23;6.60;;;3.63;;
43883;SDS011;29544;52.018;5.810;2023-03-03T01:22:48;6.70;;;3.87;;
43883;SDS011;29544;52.018;5.810;2023-03-03T01:25:14;7.00;;;4.23;;
43883;SDS011;29544;52.018;5.810;2023-03-03T01:27:40;4.77;;;3.50;;
43883;SDS011;29544;52.018;5.810;2023-03-03T01:30:06;4.33;;;3.63;;
43883;SDS011;29544;52.018;5.810;2023-03-03T01:32:33;4.82;;;3.53;;
43883;SDS011;29544;52.018;5.810;2023-03-03T01:34:59;5.23;;;3.73;;
43883;SDS011;29544;52.018;5.810;2023-03-03T01:37:24;5.03;;;3.50;;
43883;SDS011;29544;52.018;5.810;2023-03-03T01:39:53;5.10;;;3.90;;
43883;SDS011;29544;52.018;5.810;2023-03-03T01:42:20;6.55;;;3.55;;
43883;SDS011;29544;52.018;5.810;2023-03-03T01:47:15;5.35;;;3.65;;
43883;SDS011;29544;52.018;5.810;2023-03-03T01:50:00;4.70;;;3.38;;
43883;SDS011;29544;52.018;5.810;2023-03-03T01:52:33;5.22;;;3.13;;
43883;SDS011;29544;52.018;5.810;2023-03-03T01:55:12;5.07;;;3.30;;
43883;SDS011;29544;52.018;5.810;2023-03-03T01:57:44;6.55;;;3.75;;
43883;SDS011;29544;52.018;5.810;2023-03-03T02:00:13;5.28;;;3.92;;
43883;SDS011;29544;52.018;5.810;2023-03-03T02:02:40;3.90;;;3.22;;
43883;SDS011;29544;52.018;5.810;2023-03-03T02:05:08;6.38;;;3.50;;
43883;SDS011;29544;52.018;5.810;2023-03-03T02:10:08;4.75;;;3.47;;
43883;SDS011;29544;52.018;5.810;2023-03-03T02:12:40;4.85;;;3.50;;
43883;SDS011;29544;52.018;5.810;2023-03-03T02:15:21;4.93;;;3.63;;
43883;SDS011;29544;52.018;5.810;2023-03-03T02:17:52;4.57;;;3.45;;
43883;SDS011;29544;52.018;5.810;2023-03-03T02:23:31;4.43;;;3.17;;
43883;SDS011;29544;52.018;5.810;2023-03-03T02:26:17;3.95;;;3.17;;
43883;SDS011;29544;52.018;5.810;2023-03-03T02:28:48;4.32;;;3.13;;
43883;SDS011;29544;52.018;5.810;2023-03-03T02:31:15;4.38;;;2.95;;
43883;SDS011;29544;52.018;5.810;2023-03-03T02:33:44;3.80;;;3.00;;
43883;SDS011;29544;52.018;5.810;2023-03-03T02:36:16;5.63;;;3.65;;
43883;SDS011;29544;52.018;5.810;2023-03-03T02:41:35;5.70;;;3.50;;
43883;SDS011;29544;52.018;5.810;2023-03-03T02:44:11;4.38;;;3.30;;
43883;SDS011;29544;52.018;5.810;2023-03-03T02:46:40;5.05;;;3.60;;
43883;SDS011;29544;52.018;5.810;2023-03-03T02:49:07;5.30;;;3.55;;
43883;SDS011;29544;52.018;5.810;2023-03-03T02:51:34;5.57;;;3.80;;
43883;SDS011;29544;52.018;5.810;2023-03-03T02:54:00;5.03;;;3.53;;
43883;SDS011;29544;52.018;5.810;2023-03-03T02:58:53;5.38;;;3.45;;
43883;SDS011;29544;52.018;5.810;2023-03-03T03:01:19;5.80;;;3.72;;
43883;SDS011;29544;52.018;5.810;2023-03-03T03:03:44;4.77;;;3.30;;
43883;SDS011;29544;52.018;5.810;2023-03-03T03:06:10;4.87;;;3.60;;
43883;SDS011;29544;52.018;5.810;2023-03-03T03:08:36;5.20;;;3.47;;
43883;SDS011;29544;52.018;5.810;2023-03-03T03:11:02;4.70;;;3.87;;
43883;SDS011;29544;52.018;5.810;2023-03-03T03:13:28;5.00;;;3.47;;
43883;SDS011;29544;52.018;5.810;2023-03-03T03:15:55;6.20;;;4.13;;
43883;SDS011;29544;52.018;5.810;2023-03-03T03:18:20;5.37;;;3.67;;
43883;SDS011;29544;52.018;5.810;2023-03-03T03:20:46;5.30;;;3.93;;
43883;SDS011;29544;52.018;5.810;2023-03-03T03:23:11;4.67;;;3.17;;
43883;SDS011;29544;52.018;5.810;2023-03-03T03:25:37;5.30;;;3.63;;
43883;SDS011;29544;52.018;5.810;2023-03-03T03:28:09;5.90;;;3.50;;
43883;SDS011;29544;52.018;5.810;2023-03-03T03:30:42;4.90;;;3.85;;
43883;SDS011;29544;52.018;5.810;2023-03-03T03:33:09;5.22;;;3.58;;
43883;SDS011;29544;52.018;5.810;2023-03-03T03:35:35;4.73;;;3.37;;
43883;SDS011;29544;52.018;5.810;2023-03-03T03:38:01;5.32;;;4.00;;
43883;SDS011;29544;52.018;5.810;2023-03-03T03:40:27;4.50;;;3.25;;
43883;SDS011;29544;52.018;5.810;2023-03-03T03:42:53;4.30;;;3.23;;
43883;SDS011;29544;52.018;5.810;2023-03-03T03:45:19;5.32;;;3.67;;
43883;SDS011;29544;52.018;5.810;2023-03-03T03:47:45;6.77;;;3.83;;
43883;SDS011;29544;52.018;5.810;2023-03-03T03:50:10;4.37;;;3.07;;
43883;SDS011;29544;52.018;5.810;2023-03-03T03:52:37;4.53;;;3.42;;
43883;SDS011;29544;52.018;5.810;2023-03-03T03:55:03;4.93;;;3.50;;
43883;SDS011;29544;52.018;5.810;2023-03-03T03:57:29;5.72;;;3.70;;
43883;SDS011;29544;52.018;5.810;2023-03-03T03:59:54;5.07;;;3.77;;
43883;SDS011;29544;52.018;5.810;2023-03-03T04:02:20;6.43;;;4.20;;
43883;SDS011;29544;52.018;5.810;2023-03-03T04:04:45;4.80;;;3.30;;
43883;SDS011;29544;52.018;5.810;2023-03-03T04:07:11;4.50;;;3.40;;
43883;SDS011;29544;52.018;5.810;2023-03-03T04:09:37;5.07;;;3.53;;
43883;SDS011;29544;52.018;5.810;2023-03-03T04:12:03;4.77;;;3.30;;
43883;SDS011;29544;52.018;5.810;2023-03-03T04:14:28;6.33;;;3.20;;
43883;SDS011;29544;52.018;5.810;2023-03-03T04:16:54;6.15;;;3.60;;
43883;SDS011;29544;52.018;5.810;2023-03-03T04:19:20;4.38;;;3.45;;
43883;SDS011;29544;52.018;5.810;2023-03-03T04:21:46;5.70;;;3.92;;
43883;SDS011;29544;52.018;5.810;2023-03-03T04:24:12;5.33;;;4.00;;
43883;SDS011;29544;52.018;5.810;2023-03-03T04:26:37;5.17;;;4.00;;
43883;SDS011;29544;52.018;5.810;2023-03-03T04:29:03;5.17;;;3.87;;
43883;SDS011;29544;52.018;5.810;2023-03-03T04:31:29;4.88;;;3.70;;
43883;SDS011;29544;52.018;5.810;2023-03-03T04:33:54;5.40;;;3.87;;
43883;SDS011;29544;52.018;5.810;2023-03-03T04:36:20;6.43;;;3.97;;
43883;SDS011;29544;52.018;5.810;2023-03-03T04:38:46;6.05;;;3.80;;
43883;SDS011;29544;52.018;5.810;2023-03-03T04:41:11;6.23;;;3.73;;
43883;SDS011;29544;52.018;5.810;2023-03-03T04:43:37;5.73;;;4.03;;
43883;SDS011;29544;52.018;5.810;2023-03-03T04:46:03;6.03;;;4.30;;
43883;SDS011;29544;52.018;5.810;2023-03-03T04:48:28;7.10;;;4.10;;
43883;SDS011;29544;52.018;5.810;2023-03-03T04:50:54;4.87;;;3.47;;
43883;SDS011;29544;52.018;5.810;2023-03-03T04:53:19;6.23;;;3.97;;
43883;SDS011;29544;52.018;5.810;2023-03-03T04:55:45;6.60;;;4.30;;
43883;SDS011;29544;52.018;5.810;2023-03-03T04:58:11;6.50;;;4.20;;
43883;SDS011;29544;52.018;5.810;2023-03-03T05:00:37;5.80;;;3.67;;
43883;SDS011;29544;52.018;5.810;2023-03-03T05:05:29;6.32;;;4.32;;
43883;SDS011;29544;52.018;5.810;2023-03-03T05:07:54;5.17;;;3.77;;
43883;SDS011;29544;52.018;5.810;2023-03-03T05:10:20;4.90;;;3.97;;
43883;SDS011;29544;52.018;5.810;2023-03-03T05:12:45;5.30;;;3.80;;
43883;SDS011;29544;52.018;5.810;2023-03-03T05:15:11;7.33;;;4.37;;
43883;SDS011;29544;52.018;5.810;2023-03-03T05:17:36;5.57;;;4.10;;
43883;SDS011;29544;52.018;5.810;2023-03-03T05:20:03;7.20;;;4.57;;
43883;SDS011;29544;52.018;5.810;2023-03-03T05:22:29;5.95;;;4.13;;
43883;SDS011;29544;52.018;5.810;2023-03-03T05:24:55;6.73;;;4.80;;
43883;SDS011;29544;52.018;5.810;2023-03-03T05:27:21;5.63;;;3.63;;
43883;SDS011;29544;52.018;5.810;2023-03-03T05:29:47;6.57;;;4.22;;
43883;SDS011;29544;52.018;5.810;2023-03-03T05:32:13;5.67;;;4.13;;
43883;SDS011;29544;52.018;5.810;2023-03-03T05:34:39;6.23;;;4.00;;
43883;SDS011;29544;52.018;5.810;2023-03-03T05:37:04;5.43;;;3.77;;
43883;SDS011;29544;52.018;5.810;2023-03-03T05:39:30;5.53;;;3.97;;
43883;SDS011;29544;52.018;5.810;2023-03-03T05:41:57;5.40;;;3.72;;
43883;SDS011;29544;52.018;5.810;2023-03-03T05:44:24;6.38;;;4.10;;
43883;SDS011;29544;52.018;5.810;2023-03-03T05:46:50;6.22;;;3.47;;
43883;SDS011;29544;52.018;5.810;2023-03-03T05:49:15;5.67;;;3.93;;
43883;SDS011;29544;52.018;5.810;2023-03-03T05:51:41;5.20;;;3.53;;
43883;SDS011;29544;52.018;5.810;2023-03-03T05:54:06;5.87;;;3.87;;
43883;SDS011;29544;52.018;5.810;2023-03-03T05:56:32;6.30;;;3.97;;
43883;SDS011;29544;52.018;5.810;2023-03-03T05:58:57;5.87;;;4.33;;
43883;SDS011;29544;52.018;5.810;2023-03-03T06:01:23;4.60;;;3.30;;
43883;SDS011;29544;52.018;5.810;2023-03-03T06:03:48;5.30;;;3.77;;
43883;SDS011;29544;52.018;5.810;2023-03-03T06:06:14;4.77;;;3.50;;
43883;SDS011;29544;52.018;5.810;2023-03-03T06:08:41;5.13;;;3.50;;
43883;SDS011;29544;52.018;5.810;2023-03-03T06:11:06;5.90;;;3.43;;
43883;SDS011;29544;52.018;5.810;2023-03-03T06:13:32;7.43;;;4.80;;
43883;SDS011;29544;52.018;5.810;2023-03-03T06:15:57;4.90;;;3.30;;
43883;SDS011;29544;52.018;5.810;2023-03-03T06:18:23;4.33;;;3.20;;
43883;SDS011;29544;52.018;5.810;2023-03-03T06:20:52;5.33;;;3.23;;
43883;SDS011;29544;52.018;5.810;2023-03-03T06:23:18;4.20;;;3.00;;
43883;SDS011;29544;52.018;5.810;2023-03-03T06:25:44;4.63;;;3.50;;
43883;SDS011;29544;52.018;5.810;2023-03-03T06:28:10;5.10;;;3.57;;
43883;SDS011;29544;52.018;5.810;2023-03-03T06:30:35;5.03;;;3.27;;
43883;SDS011;29544;52.018;5.810;2023-03-03T06:33:01;5.33;;;3.57;;
43883;SDS011;29544;52.018;5.810;2023-03-03T06:35:26;5.33;;;3.70;;
43883;SDS011;29544;52.018;5.810;2023-03-03T06:37:52;4.10;;;3.37;;
43883;SDS011;29544;52.018;5.810;2023-03-03T06:40:17;4.83;;;3.23;;
43883;SDS011;29544;52.018;5.810;2023-03-03T06:42:43;4.20;;;3.40;;
43883;SDS011;29544;52.018;5.810;2023-03-03T06:45:09;5.60;;;3.23;;
43883;SDS011;29544;52.018;5.810;2023-03-03T06:47:34;4.57;;;2.90;;
43883;SDS011;29544;52.018;5.810;2023-03-03T06:50:00;4.00;;;2.83;;
43883;SDS011;29544;52.018;5.810;2023-03-03T06:52:25;6.47;;;3.00;;
43883;SDS011;29544;52.018;5.810;2023-03-03T06:54:52;4.90;;;3.35;;
43883;SDS011;29544;52.018;5.810;2023-03-03T06:57:23;3.80;;;2.80;;
43883;SDS011;29544;52.018;5.810;2023-03-03T06:59:55;4.40;;;3.10;;
43883;SDS011;29544;52.018;5.810;2023-03-03T07:02:24;4.55;;;3.00;;
43883;SDS011;29544;52.018;5.810;2023-03-03T07:04:50;4.10;;;2.90;;
43883;SDS011;29544;52.018;5.810;2023-03-03T07:07:21;4.25;;;3.00;;
43883;SDS011;29544;52.018;5.810;2023-03-03T07:09:49;4.70;;;3.17;;
43883;SDS011;29544;52.018;5.810;2023-03-03T07:12:20;3.95;;;2.55;;
43883;SDS011;29544;52.018;5.810;2023-03-03T07:14:49;3.40;;;2.65;;
43883;SDS011;29544;52.018;5.810;2023-03-03T07:17:19;5.65;;;3.42;;
43883;SDS011;29544;52.018;5.810;2023-03-03T07:19:47;3.58;;;2.55;;
43883;SDS011;29544;52.018;5.810;2023-03-03T07:24:45;4.63;;;2.83;;
43883;SDS011;29544;52.018;5.810;2023-03-03T07:29:50;3.50;;;2.30;;
43883;SDS011;29544;52.018;5.810;2023-03-03T07:32:25;3.80;;;2.40;;
43883;SDS011;29544;52.018;5.810;2023-03-03T07:35:01;3.05;;;2.22;;
43883;SDS011;29544;52.018;5.810;2023-03-03T07:37:54;4.72;;;2.55;;
43883;SDS011;29544;52.018;5.810;2023-03-03T07:42:57;3.60;;;2.50;;
43883;SDS011;29544;52.018;5.810;2023-03-03T07:45:30;4.30;;;2.57;;
43883;SDS011;29544;52.018;5.810;2023-03-03T07:48:05;3.05;;;2.10;;
43883;SDS011;29544;52.018;5.810;2023-03-03T07:50:42;4.68;;;2.88;;
43883;SDS011;29544;52.018;5.810;2023-03-03T07:53:13;4.30;;;2.70;;
43883;SDS011;29544;52.018;5.810;2023-03-03T07:55:51;3.45;;;2.20;;
43883;SDS011;29544;52.018;5.810;2023-03-03T07:58:36;5.73;;;2.83;;
43883;SDS011;29544;52.018;5.810;2023-03-03T08:03:52;3.22;;;2.08;;
43883;SDS011;29544;52.018;5.810;2023-03-03T08:09:18;3.13;;;2.10;;
43883;SDS011;29544;52.018;5.810;2023-03-03T08:11:54;4.80;;;2.25;;
43883;SDS011;29544;52.018;5.810;2023-03-03T08:14:43;3.58;;;2.15;;
43883;SDS011;29544;52.018;5.810;2023-03-03T08:17:13;3.22;;;2.10;;
43883;SDS011;29544;52.018;5.810;2023-03-03T08:19:44;3.50;;;2.05;;
43883;SDS011;29544;52.018;5.810;2023-03-03T08:22:17;3.77;;;2.20;;
43883;SDS011;29544;52.018;5.810;2023-03-03T08:24:48;3.65;;;2.00;;
43883;SDS011;29544;52.018;5.810;2023-03-03T08:27:14;5.33;;;2.50;;
43883;SDS011;29544;52.018;5.810;2023-03-03T08:29:40;3.17;;;1.77;;
43883;SDS011;29544;52.018;5.810;2023-03-03T08:32:05;4.10;;;2.50;;
43883;SDS011;29544;52.018;5.810;2023-03-03T08:34:31;2.27;;;1.70;;
43883;SDS011;29544;52.018;5.810;2023-03-03T08:36:56;3.30;;;2.07;;
43883;SDS011;29544;52.018;5.810;2023-03-03T08:39:22;3.10;;;1.80;;
43883;SDS011;29544;52.018;5.810;2023-03-03T08:41:48;3.03;;;1.70;;
43883;SDS011;29544;52.018;5.810;2023-03-03T08:44:13;4.70;;;1.87;;
43883;SDS011;29544;52.018;5.810;2023-03-03T08:46:39;2.77;;;1.50;;
43883;SDS011;29544;52.018;5.810;2023-03-03T08:49:04;2.60;;;1.93;;
43883;SDS011;29544;52.018;5.810;2023-03-03T08:51:30;2.43;;;1.50;;
43883;SDS011;29544;52.018;5.810;2023-03-03T08:53:58;3.83;;;1.70;;
43883;SDS011;29544;52.018;5.810;2023-03-03T08:56:23;3.03;;;1.57;;
43883;SDS011;29544;52.018;5.810;2023-03-03T08:58:49;4.03;;;1.50;;
43883;SDS011;29544;52.018;5.810;2023-03-03T09:01:14;2.50;;;1.77;;
43883;SDS011;29544;52.018;5.810;2023-03-03T09:03:41;2.53;;;1.60;;
43883;SDS011;29544;52.018;5.810;2023-03-03T09:06:07;2.45;;;1.58;;
43883;SDS011;29544;52.018;5.810;2023-03-03T09:08:33;3.72;;;1.52;;
43883;SDS011;29544;52.018;5.810;2023-03-03T09:10:59;2.30;;;1.50;;
43883;SDS011;29544;52.018;5.810;2023-03-03T09:13:25;2.80;;;1.60;;
43883;SDS011;29544;52.018;5.810;2023-03-03T09:15:53;2.17;;;1.55;;
43883;SDS011;29544;52.018;5.810;2023-03-03T09:18:30;3.35;;;1.90;;
43883;SDS011;29544;52.018;5.810;2023-03-03T09:20:59;2.47;;;1.88;;
43883;SDS011;29544;52.018;5.810;2023-03-03T09:28:54;3.25;;;1.70;;
43883;SDS011;29544;52.018;5.810;2023-03-03T09:31:27;2.95;;;1.60;;
43883;SDS011;29544;52.018;5.810;2023-03-03T09:34:02;2.22;;;1.30;;
43883;SDS011;29544;52.018;5.810;2023-03-03T09:36:44;3.47;;;1.50;;
43883;SDS011;29544;52.018;5.810;2023-03-03T09:39:17;3.87;;;1.63;;
43883;SDS011;29544;52.018;5.810;2023-03-03T09:47:58;4.07;;;1.50;;
43883;SDS011;29544;52.018;5.810;2023-03-03T09:50:38;2.97;;;1.52;;
43883;SDS011;29544;52.018;5.810;2023-03-03T10:01:40;2.42;;;1.08;;
43883;SDS011;29544;52.018;5.810;2023-03-03T10:15:49;2.45;;;1.20;;
43883;SDS011;29544;52.018;5.810;2023-03-03T10:18:29;1.73;;;1.08;;
43883;SDS011;29544;52.018;5.810;2023-03-03T10:21:10;2.10;;;1.42;;
43883;SDS011;29544;52.018;5.810;2023-03-03T10:23:43;2.38;;;1.40;;
43883;SDS011;29544;52.018;5.810;2023-03-03T10:26:30;4.90;;;1.40;;
43883;SDS011;29544;52.018;5.810;2023-03-03T10:32:11;0.98;;;0.80;;
43883;SDS011;29544;52.018;5.810;2023-03-03T10:40:33;2.65;;;1.10;;
43883;SDS011;29544;52.018;5.810;2023-03-03T10:43:20;3.03;;;1.55;;
43883;SDS011;29544;52.018;5.810;2023-03-03T10:51:50;2.13;;;1.10;;
43883;SDS011;29544;52.018;5.810;2023-03-03T11:03:02;1.92;;;1.10;;
43883;SDS011;29544;52.018;5.810;2023-03-03T11:05:50;2.38;;;1.00;;
43883;SDS011;29544;52.018;5.810;2023-03-03T11:08:26;2.78;;;1.08;;
43883;SDS011;29544;52.018;5.810;2023-03-03T11:16:39;2.10;;;0.75;;
43883;SDS011;29544;52.018;5.810;2023-03-03T11:19:20;3.75;;;0.93;;
43883;SDS011;29544;52.018;5.810;2023-03-03T11:22:01;4.30;;;1.23;;
43883;SDS011;29544;52.018;5.810;2023-03-03T11:24:49;2.58;;;1.00;;
43883;SDS011;29544;52.018;5.810;2023-03-03T11:30:00;1.10;;;0.80;;
43883;SDS011;29544;52.018;5.810;2023-03-03T11:35:46;1.95;;;1.02;;
43883;SDS011;29544;52.018;5.810;2023-03-03T11:41:02;1.67;;;0.90;;
43883;SDS011;29544;52.018;5.810;2023-03-03T11:43:44;2.38;;;0.90;;
43883;SDS011;29544;52.018;5.810;2023-03-03T11:46:16;3.38;;;0.85;;
43883;SDS011;29544;52.018;5.810;2023-03-03T11:54:17;1.75;;;0.80;;
43883;SDS011;29544;52.018;5.810;2023-03-03T11:56:45;2.50;;;0.85;;
43883;SDS011;29544;52.018;5.810;2023-03-03T11:59:33;1.52;;;1.00;;
43883;SDS011;29544;52.018;5.810;2023-03-03T12:04:53;3.78;;;1.02;;
43883;SDS011;29544;52.018;5.810;2023-03-03T12:10:17;3.40;;;0.80;;
43883;SDS011;29544;52.018;5.810;2023-03-03T12:13:08;3.38;;;0.90;;
43883;SDS011;29544;52.018;5.810;2023-03-03T12:21:20;2.63;;;0.77;;
43883;SDS011;29544;52.018;5.810;2023-03-03T12:26:26;3.10;;;1.00;;
43883;SDS011;29544;52.018;5.810;2023-03-03T12:28:59;1.48;;;0.70;;
43883;SDS011;29544;52.018;5.810;2023-03-03T12:31:49;4.38;;;1.15;;
43883;SDS011;29544;52.018;5.810;2023-03-03T12:34:46;1.50;;;0.80;;
43883;SDS011;29544;52.018;5.810;2023-03-03T12:40:18;3.72;;;0.98;;
43883;SDS011;29544;52.018;5.810;2023-03-03T12:45:31;3.17;;;1.10;;
43883;SDS011;29544;52.018;5.810;2023-03-03T12:48:15;2.63;;;1.15;;
43883;SDS011;29544;52.018;5.810;2023-03-03T12:50:48;2.00;;;0.80;;
43883;SDS011;29544;52.018;5.810;2023-03-03T12:53:32;3.72;;;1.00;;
43883;SDS011;29544;52.018;5.810;2023-03-03T12:56:07;3.00;;;1.02;;
43883;SDS011;29544;52.018;5.810;2023-03-03T13:04:07;1.63;;;0.93;;
43883;SDS011;29544;52.018;5.810;2023-03-03T13:06:51;4.10;;;1.13;;
43883;SDS011;29544;52.018;5.810;2023-03-03T13:12:31;1.30;;;1.00;;
43883;SDS011;29544;52.018;5.810;2023-03-03T13:17:49;3.03;;;0.80;;
43883;SDS011;29544;52.018;5.810;2023-03-03T13:26:25;1.27;;;0.60;;
43883;SDS011;29544;52.018;5.810;2023-03-03T13:31:54;1.52;;;0.75;;
43883;SDS011;29544;52.018;5.810;2023-03-03T13:34:35;1.83;;;0.90;;
43883;SDS011;29544;52.018;5.810;2023-03-03T13:37:13;2.40;;;0.77;;
43883;SDS011;29544;52.018;5.810;2023-03-03T13:39:44;2.15;;;1.10;;
43883;SDS011;29544;52.018;5.810;2023-03-03T13:42:40;2.28;;;0.70;;
43883;SDS011;29544;52.018;5.810;2023-03-03T13:45:17;3.40;;;0.90;;
43883;SDS011;29544;52.018;5.810;2023-03-03T13:50:56;2.05;;;0.68;;
43883;SDS011;29544;52.018;5.810;2023-03-03T13:58:58;1.20;;;0.70;;
43883;SDS011;29544;52.018;5.810;2023-03-03T14:01:51;1.60;;;0.70;;
43883;SDS011;29544;52.018;5.810;2023-03-03T14:04:28;1.70;;;0.93;;
43883;SDS011;29544;52.018;5.810;2023-03-03T14:12:46;1.77;;;0.90;;
43883;SDS011;29544;52.018;5.810;2023-03-03T14:15:43;3.60;;;1.00;;
43883;SDS011;29544;52.018;5.810;2023-03-03T14:18:29;1.83;;;0.95;;
43883;SDS011;29544;52.018;5.810;2023-03-03T14:21:02;1.80;;;0.90;;
43883;SDS011;29544;52.018;5.810;2023-03-03T14:26:47;1.20;;;0.80;;
43883;SDS011;29544;52.018;5.810;2023-03-03T14:31:52;0.98;;;0.75;;
43883;SDS011;29544;52.018;5.810;2023-03-03T14:36:46;1.95;;;1.30;;
43883;SDS011;29544;52.018;5.810;2023-03-03T14:41:57;2.30;;;1.45;;
43883;SDS011;29544;52.018;5.810;2023-03-03T14:44:34;1.90;;;1.10;;
43883;SDS011;29544;52.018;5.810;2023-03-03T14:49:51;1.75;;;1.38;;
43883;SDS011;29544;52.018;5.810;2023-03-03T14:52:28;1.55;;;1.13;;
43883;SDS011;29544;52.018;5.810;2023-03-03T14:54:57;3.40;;;1.20;;
43883;SDS011;29544;52.018;5.810;2023-03-03T15:00:14;1.75;;;1.02;;
43883;SDS011;29544;52.018;5.810;2023-03-03T15:05:29;3.55;;;1.27;;
43883;SDS011;29544;52.018;5.810;2023-03-03T15:10:31;2.00;;;1.20;;
43883;SDS011;29544;52.018;5.810;2023-03-03T15:15:50;1.60;;;1.10;;
43883;SDS011;29544;52.018;5.810;2023-03-03T15:18:22;1.67;;;1.17;;
43883;SDS011;29544;52.018;5.810;2023-03-03T15:21:04;1.63;;;1.17;;
43883;SDS011;29544;52.018;5.810;2023-03-03T15:23:44;2.10;;;1.40;;
43883;SDS011;29544;52.018;5.810;2023-03-03T15:26:43;0.85;;;0.80;;
43883;SDS011;29544;52.018;5.810;2023-03-03T15:32:00;2.28;;;1.30;;
43883;SDS011;29544;52.018;5.810;2023-03-03T15:34:53;1.73;;;1.20;;
43883;SDS011;29544;52.018;5.810;2023-03-03T15:43:19;3.28;;;1.35;;
43883;SDS011;29544;52.018;5.810;2023-03-03T15:45:57;2.22;;;1.30;;
43883;SDS011;29544;52.018;5.810;2023-03-03T15:48:45;2.58;;;1.55;;
43883;SDS011;29544;52.018;5.810;2023-03-03T15:54:29;2.67;;;1.10;;
43883;SDS011;29544;52.018;5.810;2023-03-03T15:56:58;1.65;;;1.10;;
43883;SDS011;29544;52.018;5.810;2023-03-03T15:59:39;1.70;;;0.90;;
43883;SDS011;29544;52.018;5.810;2023-03-03T16:05:00;1.77;;;1.20;;
43883;SDS011;29544;52.018;5.810;2023-03-03T16:11:36;2.63;;;1.30;;
43883;SDS011;29544;52.018;5.810;2023-03-03T16:19:00;2.75;;;1.15;;
43883;SDS011;29544;52.018;5.810;2023-03-03T16:27:31;3.45;;;1.30;;
43883;SDS011;29544;52.018;5.810;2023-03-03T16:32:55;2.63;;;1.10;;
43883;SDS011;29544;52.018;5.810;2023-03-03T16:35:42;1.48;;;1.10;;
43883;SDS011;29544;52.018;5.810;2023-03-03T16:38:30;3.53;;;1.13;;
43883;SDS011;29544;52.018;5.810;2023-03-03T16:41:01;1.58;;;1.00;;
43883;SDS011;29544;52.018;5.810;2023-03-03T16:43:45;3.65;;;1.17;;
43883;SDS011;29544;52.018;5.810;2023-03-03T16:46:37;2.45;;;1.20;;
43883;SDS011;29544;52.018;5.810;2023-03-03T16:51:38;1.17;;;0.90;;
43883;SDS011;29544;52.018;5.810;2023-03-03T16:54:15;2.33;;;0.80;;
43883;SDS011;29544;52.018;5.810;2023-03-03T16:59:49;2.15;;;0.93;;
43883;SDS011;29544;52.018;5.810;2023-03-03T17:02:31;2.05;;;1.17;;
43883;SDS011;29544;52.018;5.810;2023-03-03T17:08:16;2.20;;;1.13;;
43883;SDS011;29544;52.018;5.810;2023-03-03T17:16:27;1.30;;;0.85;;
43883;SDS011;29544;52.018;5.810;2023-03-03T17:19:15;1.55;;;0.80;;
43883;SDS011;29544;52.018;5.810;2023-03-03T17:25:42;2.03;;;0.80;;
43883;SDS011;29544;52.018;5.810;2023-03-03T17:30:44;1.55;;;0.95;;
43883;SDS011;29544;52.018;5.810;2023-03-03T17:33:28;1.52;;;0.90;;
43883;SDS011;29544;52.018;5.810;2023-03-03T17:41:53;1.38;;;0.90;;
43883;SDS011;29544;52.018;5.810;2023-03-03T17:59:50;1.48;;;0.70;;
43883;SDS011;29544;52.018;5.810;2023-03-03T18:02:42;1.17;;;0.80;;
43883;SDS011;29544;52.018;5.810;2023-03-03T18:05:14;2.72;;;1.00;;
43883;SDS011;29544;52.018;5.810;2023-03-03T18:13:17;1.75;;;0.80;;
43883;SDS011;29544;52.018;5.810;2023-03-03T18:19:10;3.85;;;0.73;;
43883;SDS011;29544;52.018;5.810;2023-03-03T18:21:38;1.75;;;0.70;;
43883;SDS011;29544;52.018;5.810;2023-03-03T18:24:29;1.73;;;0.80;;
43883;SDS011;29544;52.018;5.810;2023-03-03T18:37:57;2.38;;;0.98;;
43883;SDS011;29544;52.018;5.810;2023-03-03T18:48:44;1.45;;;0.73;;
43883;SDS011;29544;52.018;5.810;2023-03-03T18:51:34;1.85;;;1.05;;
43883;SDS011;29544;52.018;5.810;2023-03-03T18:54:21;2.63;;;1.17;;
43883;SDS011;29544;52.018;5.810;2023-03-03T19:02:17;3.33;;;0.98;;
43883;SDS011;29544;52.018;5.810;2023-03-03T19:09:55;1.10;;;0.70;;
43883;SDS011;29544;52.018;5.810;2023-03-03T19:18:00;3.42;;;0.90;;
43883;SDS011;29544;52.018;5.810;2023-03-03T19:20:48;1.83;;;0.82;;
43883;SDS011;29544;52.018;5.810;2023-03-03T19:23:45;3.08;;;0.90;;
43883;SDS011;29544;52.018;5.810;2023-03-03T19:39:47;2.60;;;0.90;;
43883;SDS011;29544;52.018;5.810;2023-03-03T19:48:19;2.50;;;1.00;;
43883;SDS011;29544;52.018;5.810;2023-03-03T19:53:50;2.58;;;0.98;;
43883;SDS011;29544;52.018;5.810;2023-03-03T19:56:34;4.43;;;1.30;;
43883;SDS011;29544;52.018;5.810;2023-03-03T20:02:01;4.70;;;1.15;;
43883;SDS011;29544;52.018;5.810;2023-03-03T20:07:42;2.55;;;1.10;;
43883;SDS011;29544;52.018;5.810;2023-03-03T20:18:57;4.22;;;1.30;;
43883;SDS011;29544;52.018;5.810;2023-03-03T20:22:09;3.70;;;1.27;;
43883;SDS011;29544;52.018;5.810;2023-03-03T20:32:39;4.13;;;1.65;;
43883;SDS011;29544;52.018;5.810;2023-03-03T20:38:01;4.97;;;1.40;;
43883;SDS011;29544;52.018;5.810;2023-03-03T20:53:50;8.43;;;1.70;;
43883;SDS011;29544;52.018;5.810;2023-03-03T20:56:34;2.92;;;1.40;;
43883;SDS011;29544;52.018;5.810;2023-03-03T20:59:12;6.70;;;1.50;;
43883;SDS011;29544;52.018;5.810;2023-03-03T21:01:56;7.18;;;1.70;;
43883;SDS011;29544;52.018;5.810;2023-03-03T21:04:44;4.38;;;1.48;;
43883;SDS011;29544;52.018;5.810;2023-03-03T21:07:21;5.37;;;1.90;;
43883;SDS011;29544;52.018;5.810;2023-03-03T21:09:48;4.18;;;1.70;;
43883;SDS011;29544;52.018;5.810;2023-03-03T21:12:27;6.53;;;2.03;;
43883;SDS011;29544;52.018;5.810;2023-03-03T21:15:01;8.50;;;2.25;;
43883;SDS011;29544;52.018;5.810;2023-03-03T21:17:29;7.60;;;2.30;;
43883;SDS011;29544;52.018;5.810;2023-03-03T21:19:56;9.55;;;2.00;;
43883;SDS011;29544;52.018;5.810;2023-03-03T21:22:49;7.30;;;2.22;;
43883;SDS011;29544;52.018;5.810;2023-03-03T21:36:14;4.60;;;1.80;;